ADDS METAR Data INFO
IDs: Format: Raw Decoded Include TAF

Data at: 0211 UTC 20 Sep 2017

KGGG 200153Z 17008KT 10SM CLR 28/24 A2986 RMK AO2 SLP105 T02780239
KGGG 200053Z 17007KT 10SM CLR 28/24 A2985 RMK AO2 SLP100 T02830239
KGGG 192353Z 16010KT 10SM FEW048 31/23 A2983 RMK AO2 SLP093 T03060233 10339 20306 55011
KGGG 192253Z COR 16011KT 10SM SCT048 BKN060 33/23 A2983 RMK AO2 SLP091 T03280228
KGGG 192153Z COR 19009KT 10SM BKN048 BKN065 33/22 A2984 RMK AO2 SLP096 T03330222
KGGG 192053Z 18007KT 10SM BKN060 33/23 A2986 RMK AO2 SLP103 T03280228 56028
KGGG 191953Z COR 20010KT 180V240 10SM BKN060 33/23 A2988 RMK AO2 SLP111 T03330228
KGGG 191853Z COR 20007KT 10SM SCT038 BKN060 32/23 A2991 RMK AO2 SLP123 T03170228
KGGG 191753Z 23008KT 10SM SCT034 BKN043 BKN050 31/24 A2994 RMK AO2 SLP133 T03060239 10306 20233 58011
KGGG 191740Z 24008KT 10SM SCT031 BKN041 BKN049 30/23 A2995 RMK AO2 T03000233
KGGG 191705Z 23007G17KT 10SM BKN028 OVC036 30/24 A2996 RMK AO2 T03000239
KGGG 191653Z COR 20008KT 10SM BKN024 BKN033 30/23 A2997 RMK AO2 SLP140 T03000233
KGGG 191640Z COR 20010G14KT 10SM BKN021 BKN031 30/23 A2997 RMK AO2 T03000233
KGGG 191553Z 21007KT 10SM BKN020 OVC025 28/24 A2997 RMK AO2 SLP143 T02780239
KGGG 191453Z 21008KT 10SM OVC013 26/24 A2998 RMK AO2 SLP145 T02610239 53012
KGGG 191412Z 21006KT 10SM OVC011 26/24 A2997 RMK AO2 T02560239
KGGG 191353Z 20008KT 10SM OVC009 25/24 A2996 RMK AO2 CIG 007V012 SLP140 T02500239
KGGG 191253Z 21004KT 10SM OVC005 24/24 A2996 RMK AO2 SLP138 T02390239
KGGG 191153Z COR 21006KT 8SM BKN006 23/23 A2994 RMK AO2 SLP132 T02330233 10239 20222 53003
KGGG 191053Z 21005KT 10SM BKN004 23/23 A2993 RMK AO2 SLP129 T02330233
KGGG 191021Z AUTO 21006KT 10SM OVC005 24/24 A2993 RMK AO2 T02390239
KGGG 190953Z AUTO 22009KT 10SM OVC004 24/24 A2993 RMK AO2 SLP129 T02390239
KGGG 190948Z AUTO 22009KT 10SM OVC004 24/24 A2993 RMK AO2
KGGG 190928Z AUTO 21007KT 10SM BKN005 24/23 A2992 RMK AO2 T02390233
KGGG 190917Z AUTO 21008KT 10SM SCT005 23/23 A2992 RMK AO2 T02330233
KGGG 190853Z AUTO 20005KT 10SM CLR 23/23 A2992 RMK AO2 SLP123 T02330233 57008
KGGG 190840Z AUTO 21007KT 10SM SCT005 23/23 A2992 RMK AO2 T02330233
KGGG 190812Z AUTO 21008KT 10SM BKN005 23/23 A2992 RMK AO2 T02330228
KGGG 190804Z AUTO 19008KT 10SM SCT005 23/22 A2992 RMK AO2 T02280222
KGGG 190753Z AUTO 19007KT 10SM CLR 22/22 A2992 RMK AO2 SLP125 T02220222
KGGG 190653Z AUTO 18004KT 10SM CLR 22/22 A2994 RMK AO2 SLP131 T02220222
KGGG 190553Z AUTO 17003KT 10SM CLR 23/22 A2994 RMK AO2 SLP132 T02280222 10289 20222 403330200 56003
KGGG 190453Z AUTO 14003KT 10SM CLR 23/22 A2994 RMK AO2 SLP134 T02330222
KGGG 190353Z AUTO 16004KT 10SM CLR 24/23 A2994 RMK AO2 SLP133 T02390228
KGGG 190253Z AUTO 17006KT 10SM CLR 25/23 A2995 RMK AO2 SLP136 T02500233 53006
KGGG 190153Z 17006KT 10SM CLR 26/24 A2994 RMK AO2 SLP133 T02610239
KGGG 190053Z 14003KT 10SM CLR 27/23 A2993 RMK AO2 SLP128 T02670228
KGGG 182353Z 15006KT 10SM CLR 29/22 A2993 RMK AO2 SLP130 T02890222 10333 20289 53001
KGGG 182253Z COR 17007KT 10SM FEW035 31/23 A2992 RMK AO2 SLP126 T03060228
KGGG 182153Z 16013KT 10SM FEW050 32/22 A2991 RMK AO2 SLP121 T03170217
KGGG 182053Z VRB03KT 10SM SCT045 33/21 A2993 RMK AO2 SLP128 T03280211 56036
KGGG 181953Z 00000KT 10SM SCT035 32/22 A2996 RMK AO2 SLP139 T03170217
KGGG 181900Z COR 00000KT 10SM SCT035 31/24 A3000 RMK AO2 T03110239
KGGG 181853Z VRB03KT 10SM BKN022 BKN070 31/24 A3000 RMK AO2 SLP153 T03060239
KGGG 181753Z 28003KT 10SM BKN022 BKN070 29/24 A3004 RMK AO2 SLP166 T02890239 10294 20211 58002
KGGG 181738Z VRB04KT 10SM FEW017 BKN065 29/24 A3005 RMK AO2 T02890239
KGGG 181720Z 27003KT 10SM BKN016 OVC065 28/24 A3005 RMK AO2 T02830239
KGGG 181653Z VRB05KT 10SM OVC013 28/24 A3005 RMK AO2 SLP171 T02780239
KGGG 181631Z 23005KT 10SM OVC010 27/24 A3006 RMK AO2 T02670239
KGGG 181553Z 23006KT 8SM OVC006 26/24 A3006 RMK AO2 SLP172 T02560239
KGGG 181516Z 23005KT 4SM BR OVC005 24/23 A3005 RMK AO2 T02440233
KGGG 181453Z 19006KT 2SM BR OVC004 23/23 A3005 RMK AO2 SLP168 T02330233 51008
KGGG 181428Z 19005KT 1SM R13/P6000FT BR OVC002 23/23 A3004 RMK AO2 T02280228